createdAt,value
2019-04-27T00:00:46.514Z,100817.34
2019-04-27T00:03:20.429Z,100813.44
2019-04-27T00:05:57.371Z,100815.33
2019-04-27T00:08:38.853Z,100802.79
2019-04-27T00:11:10.101Z,100799.94
2019-04-27T00:13:40.655Z,100802.39
2019-04-27T00:16:11.052Z,100808.53
2019-04-27T00:19:00.288Z,100803.75
2019-04-27T00:21:34.034Z,100807.28
2019-04-27T00:24:03.574Z,100799.06
2019-04-27T00:26:33.424Z,100793.63
2019-04-27T00:29:03.845Z,100791.66
2019-04-27T00:31:33.793Z,100785.83
2019-04-27T00:34:03.691Z,100789.00
2019-04-27T00:36:46.922Z,100787.94
2019-04-27T00:39:16.233Z,100786.28
2019-04-27T00:41:45.888Z,100781.44
2019-04-27T00:44:15.391Z,100773.97
2019-04-27T00:46:44.901Z,100772.88
2019-04-27T00:49:14.447Z,100769.55
2019-04-27T00:51:43.943Z,100766.63
2019-04-27T00:54:13.648Z,100767.45
2019-04-27T00:56:50.346Z,100769.48
2019-04-27T00:59:37.872Z,100766.89
2019-04-27T01:02:09.125Z,100763.38
2019-04-27T01:04:38.629Z,100764.04
2019-04-27T01:07:08.875Z,100766.19
2019-04-27T01:09:38.341Z,100758.09
2019-04-27T01:12:08.655Z,100750.98
2019-04-27T01:14:38.137Z,100750.50
2019-04-27T01:17:08.879Z,100748.39
2019-04-27T01:19:39.233Z,100745.25
2019-04-27T01:22:09.202Z,100746.08
2019-04-27T01:24:39.177Z,100742.15
2019-04-27T01:27:13.093Z,100733.26
2019-04-27T01:29:43.003Z,100741.16
2019-04-27T01:32:14.227Z,100734.67
2019-04-27T01:34:43.780Z,100730.39
2019-04-27T01:37:13.264Z,100724.98
2019-04-27T01:39:42.762Z,100727.69
2019-04-27T01:42:12.314Z,100721.25
2019-04-27T01:44:41.888Z,100721.61
2019-04-27T01:47:11.413Z,100714.37
2019-04-27T01:49:40.964Z,100717.73
2019-04-27T01:52:10.441Z,100722.37
2019-04-27T01:54:41.132Z,100724.64
2019-04-27T01:57:10.704Z,100723.33
2019-04-27T01:59:40.288Z,100718.63
2019-04-27T02:02:23.442Z,100715.23
2019-04-27T02:05:10.512Z,100718.49
2019-04-27T02:07:41.063Z,100715.05
2019-04-27T02:10:12.177Z,100716.17
2019-04-27T02:12:43.836Z,100713.62
2019-04-27T02:15:13.220Z,100712.19
2019-04-27T02:17:42.699Z,100713.69
2019-04-27T02:20:12.433Z,100707.81
2019-04-27T02:22:41.946Z,100708.58
2019-04-27T02:25:11.744Z,100710.77
2019-04-27T02:27:42.940Z,100710.43
2019-04-27T02:30:20.715Z,100707.63
2019-04-27T02:33:12.312Z,100705.45
2019-04-27T02:35:39.134Z,100702.61
2019-04-27T02:38:10.237Z,100696.16
2019-04-27T02:40:52.369Z,100697.02
2019-04-27T02:43:23.603Z,100696.50
2019-04-27T02:45:53.233Z,100691.78
2019-04-27T02:48:22.804Z,100687.98
2019-04-27T02:50:53.939Z,100683.56
2019-04-27T02:53:29.558Z,100682.25
2019-04-27T02:55:59.642Z,100677.54
2019-04-27T02:58:31.590Z,100674.89
2019-04-27T03:01:00.359Z,100672.63
2019-04-27T03:03:30.182Z,100673.59
2019-04-27T03:05:59.876Z,100665.98
2019-04-27T03:08:29.639Z,100667.23
2019-04-27T03:11:01.179Z,100665.03
2019-04-27T03:13:32.016Z,100668.05
2019-04-27T03:16:20.493Z,100661.95
2019-04-27T03:18:51.701Z,100656.27
2019-04-27T03:21:22.823Z,100650.47
2019-04-27T03:23:52.464Z,100657.66
2019-04-27T03:26:21.871Z,100656.31
2019-04-27T03:28:52.579Z,100648.08
2019-04-27T03:31:22.165Z,100640.63
2019-04-27T03:33:58.662Z,100640.20
2019-04-27T03:36:23.010Z,100633.87
2019-04-27T03:38:52.634Z,100624.91
2019-04-27T03:41:22.110Z,100621.23
2019-04-27T03:43:51.679Z,100621.06
2019-04-27T03:46:21.306Z,100615.86
2019-04-27T03:48:50.940Z,100612.91
2019-04-27T03:51:22.153Z,100613.34
2019-04-27T03:53:56.997Z,100599.23
2019-04-27T03:56:26.273Z,100601.27
2019-04-27T03:58:59.680Z,100595.08
2019-04-27T04:01:30.213Z,100587.62
2019-04-27T04:04:00.021Z,100599.41
2019-04-27T04:06:31.527Z,100595.16
2019-04-27T04:09:01.060Z,100590.39
2019-04-27T04:11:39.537Z,100591.14
2019-04-27T04:14:13.591Z,100590.19
2019-04-27T04:16:50.589Z,100589.32
2019-04-27T04:19:20.259Z,100584.59
2019-04-27T04:21:50.479Z,100582.87
2019-04-27T04:24:20.168Z,100586.89
2019-04-27T04:26:50.526Z,100579.70
2019-04-27T04:29:20.476Z,100592.59
2019-04-27T04:31:50.466Z,100587.06
2019-04-27T04:34:20.252Z,100594.94
2019-04-27T04:36:50.343Z,100592.69
2019-04-27T04:39:20.054Z,100589.66
2019-04-27T04:41:59.951Z,100594.38
2019-04-27T04:44:30.277Z,100586.53
2019-04-27T04:47:01.521Z,100590.00
2019-04-27T04:49:31.010Z,100589.18
2019-04-27T04:52:00.558Z,100597.58
2019-04-27T04:54:30.247Z,100586.63
2019-04-27T04:56:59.803Z,100587.92
2019-04-27T04:59:29.368Z,100594.11
2019-04-27T05:02:01.922Z,100587.28
2019-04-27T05:04:30.152Z,100585.19
2019-04-27T05:06:59.640Z,100584.87
2019-04-27T05:09:29.671Z,100591.97
2019-04-27T05:11:59.132Z,100592.83
2019-04-27T05:14:29.015Z,100595.56
2019-04-27T05:16:59.165Z,100590.36
2019-04-27T05:19:29.790Z,100590.96
2019-04-27T05:21:59.406Z,100586.59
2019-04-27T05:24:29.339Z,100587.09
2019-04-27T05:26:59.164Z,100588.89
2019-04-27T05:29:29.295Z,100583.73
2019-04-27T05:31:59.314Z,100580.33
2019-04-27T05:34:29.459Z,100581.22
2019-04-27T05:37:01.060Z,100579.98
2019-04-27T05:39:30.342Z,100576.13
2019-04-27T05:41:59.973Z,100583.48
2019-04-27T05:44:51.895Z,100585.67
2019-04-27T05:47:23.016Z,100580.33
2019-04-27T05:49:54.163Z,100583.64
2019-04-27T05:52:29.957Z,100577.44
2019-04-27T05:54:59.885Z,100581.83
2019-04-27T05:57:31.428Z,100578.33
2019-04-27T06:00:02.143Z,100575.27
2019-04-27T06:02:32.101Z,100567.03
2019-04-27T06:05:01.615Z,100568.16
2019-04-27T06:07:31.104Z,100575.63
2019-04-27T06:10:00.903Z,100572.02
2019-04-27T06:12:30.647Z,100566.02
2019-04-27T06:15:00.262Z,100567.45
2019-04-27T06:17:30.219Z,100570.52
2019-04-27T06:19:59.917Z,100571.42
2019-04-27T06:22:29.605Z,100576.94
2019-04-27T06:25:00.224Z,100573.20
2019-04-27T06:27:30.766Z,100571.58
2019-04-27T06:30:00.640Z,100574.18
2019-04-27T06:32:30.217Z,100571.30
2019-04-27T06:34:59.855Z,100575.52
2019-04-27T06:37:29.648Z,100573.66
2019-04-27T06:39:59.871Z,100567.53
2019-04-27T06:42:29.887Z,100573.53
2019-04-27T06:45:00.016Z,100569.48
2019-04-27T06:47:29.924Z,100571.46
2019-04-27T06:49:59.394Z,100572.33
2019-04-27T06:52:29.381Z,100567.59
2019-04-27T06:55:00.661Z,100567.50
2019-04-27T06:57:31.114Z,100561.46
2019-04-27T07:00:00.765Z,100560.81
2019-04-27T07:02:30.251Z,100561.84
2019-04-27T07:04:59.822Z,100562.02
2019-04-27T07:07:29.634Z,100558.63
2019-04-27T07:09:59.368Z,100561.25
2019-04-27T07:12:29.045Z,100552.56
2019-04-27T07:14:59.252Z,100562.19
2019-04-27T07:17:29.205Z,100560.44
2019-04-27T07:19:59.413Z,100559.44
2019-04-27T07:22:29.882Z,100551.92
2019-04-27T07:24:59.495Z,100557.94
2019-04-27T07:27:29.286Z,100556.47
2019-04-27T07:30:01.396Z,100554.42
2019-04-27T07:32:30.191Z,100553.53
2019-04-27T07:34:59.737Z,100553.50
2019-04-27T07:37:29.526Z,100557.71
2019-04-27T07:39:59.309Z,100557.80
2019-04-27T07:42:31.501Z,100557.22
2019-04-27T07:45:17.308Z,100559.48
2019-04-27T07:47:49.335Z,100559.08
2019-04-27T07:50:19.408Z,100546.59
2019-04-27T07:52:48.937Z,100545.01
2019-04-27T07:55:18.781Z,100548.84
2019-04-27T07:57:49.480Z,100544.88
2019-04-27T08:00:19.550Z,100541.38
2019-04-27T08:02:49.129Z,100547.51
2019-04-27T08:05:19.248Z,100548.20
2019-04-27T08:07:49.214Z,100545.20
2019-04-27T08:10:19.379Z,100542.16
2019-04-27T08:12:49.798Z,100541.73
2019-04-27T08:15:19.406Z,100537.40
2019-04-27T08:17:49.352Z,100529.56
2019-04-27T08:20:21.025Z,100529.20
2019-04-27T08:22:50.229Z,100526.13
2019-04-27T08:25:19.832Z,100520.97
2019-04-27T08:27:51.068Z,100524.87
2019-04-27T08:30:24.708Z,100519.72
2019-04-27T08:32:55.833Z,100521.53
2019-04-27T08:35:25.327Z,100515.95
2019-04-27T08:37:54.845Z,100523.95
2019-04-27T08:40:24.408Z,100513.95
2019-04-27T08:42:55.733Z,100522.59
2019-04-27T08:45:25.153Z,100525.64
2019-04-27T08:47:54.651Z,100515.73
2019-04-27T08:50:24.379Z,100518.80
2019-04-27T08:52:53.962Z,100515.27
2019-04-27T08:55:23.524Z,100515.34
2019-04-27T08:57:53.090Z,100519.25
2019-04-27T09:00:23.216Z,100511.41
2019-04-27T09:02:52.767Z,100507.97
2019-04-27T09:05:26.108Z,100501.94
2019-04-27T09:08:14.276Z,100503.27
2019-04-27T09:10:45.470Z,100499.82
2019-04-27T09:13:16.634Z,100495.47
2019-04-27T09:16:00.081Z,100487.66
2019-04-27T09:18:32.595Z,100487.67
2019-04-27T09:21:04.004Z,100485.89
2019-04-27T09:23:33.591Z,100478.09
2019-04-27T09:26:03.156Z,100483.66
2019-04-27T09:28:32.671Z,100489.33
2019-04-27T09:31:02.248Z,100487.56
2019-04-27T09:33:31.766Z,100474.94
2019-04-27T09:36:01.272Z,100478.41
2019-04-27T09:38:30.837Z,100470.21
2019-04-27T09:41:01.267Z,100472.86
2019-04-27T09:43:30.776Z,100534.16
2019-04-27T09:46:00.281Z,100562.84
2019-04-27T09:48:29.792Z,100549.31
2019-04-27T09:50:59.346Z,100559.75
2019-04-27T09:53:28.863Z,100559.73
2019-04-27T09:55:58.389Z,100564.10
2019-04-27T09:58:27.872Z,100560.70
2019-04-27T10:00:57.458Z,100554.55
2019-04-27T10:03:26.985Z,100552.67
2019-04-27T10:05:57.075Z,100553.09
2019-04-27T10:08:26.658Z,100540.05
2019-04-27T10:10:56.675Z,100543.70
2019-04-27T10:13:27.621Z,100547.80
2019-04-27T10:15:57.254Z,100548.58
2019-04-27T10:18:26.757Z,100546.73
2019-04-27T10:21:01.757Z,100547.46
2019-04-27T10:23:27.579Z,100545.17
2019-04-27T10:25:57.438Z,100539.11
2019-04-27T10:28:27.011Z,100540.36
2019-04-27T10:30:56.928Z,100537.05
2019-04-27T10:33:27.752Z,100543.16
2019-04-27T10:35:57.259Z,100538.19
2019-04-27T10:38:26.885Z,100537.09
2019-04-27T10:40:56.650Z,100541.04
2019-04-27T10:43:26.244Z,100534.59
2019-04-27T10:45:56.515Z,100549.37
2019-04-27T10:48:26.632Z,100544.12
2019-04-27T10:50:56.208Z,100551.11
2019-04-27T10:53:26.866Z,100551.09
2019-04-27T10:55:56.697Z,100547.13
2019-04-27T10:58:27.310Z,100562.98
2019-04-27T11:00:58.807Z,100561.56
2019-04-27T11:03:46.190Z,100556.67
2019-04-27T11:06:17.796Z,100559.34
2019-04-27T11:08:48.364Z,100553.70
2019-04-27T11:11:17.995Z,100557.09
2019-04-27T11:13:47.479Z,100570.23
2019-04-27T11:16:17.031Z,100568.42
2019-04-27T11:18:47.112Z,100576.89
2019-04-27T11:21:16.714Z,100575.27
2019-04-27T11:23:46.228Z,100576.70
2019-04-27T11:26:16.028Z,100580.52
2019-04-27T11:28:46.305Z,100591.34
2019-04-27T11:31:17.254Z,100592.45
2019-04-27T11:33:46.938Z,100593.12
2019-04-27T11:36:19.359Z,100602.69
2019-04-27T11:38:56.582Z,100603.47
2019-04-27T11:41:26.408Z,100601.69
2019-04-27T11:43:56.596Z,100606.41
2019-04-27T11:46:26.682Z,100603.89
2019-04-27T11:48:58.288Z,100605.59
2019-04-27T11:51:27.576Z,100596.90
2019-04-27T11:53:57.076Z,100596.33
2019-04-27T11:56:27.409Z,100595.37
2019-04-27T11:58:56.969Z,100592.63
2019-04-27T12:01:27.078Z,100596.08
2019-04-27T12:03:56.689Z,100598.62
2019-04-27T12:06:26.233Z,100596.13
2019-04-27T12:08:55.735Z,100595.41
2019-04-27T12:11:26.121Z,100574.66
2019-04-27T12:13:56.127Z,100578.77
2019-04-27T12:16:26.194Z,100559.33
2019-04-27T12:18:56.374Z,100559.86
2019-04-27T12:21:26.100Z,100565.08
2019-04-27T12:23:55.620Z,100552.91
2019-04-27T12:26:32.556Z,100551.33
2019-04-27T12:29:03.814Z,100553.70
2019-04-27T12:31:37.503Z,100555.66
2019-04-27T12:34:07.042Z,100563.59
2019-04-27T12:36:36.629Z,100567.42
2019-04-27T12:39:12.404Z,100557.62
2019-04-27T12:41:42.220Z,100555.58
2019-04-27T12:44:12.149Z,100563.14
2019-04-27T12:46:41.707Z,100563.22
2019-04-27T12:49:11.636Z,100560.94
2019-04-27T12:51:41.203Z,100568.48
2019-04-27T12:54:16.203Z,100569.43
2019-04-27T12:56:50.459Z,100577.44
2019-04-27T12:59:33.369Z,100563.59
2019-04-27T13:02:02.950Z,100565.34
2019-04-27T13:04:32.440Z,100568.92
2019-04-27T13:07:02.017Z,100555.49
2019-04-27T13:09:31.600Z,100550.95
2019-04-27T13:12:01.081Z,100553.09
2019-04-27T13:14:30.681Z,100546.47
2019-04-27T13:17:00.191Z,100542.89
2019-04-27T13:19:29.782Z,100546.42
2019-04-27T13:21:59.340Z,100540.50
2019-04-27T13:24:28.976Z,100539.82
2019-04-27T13:26:58.566Z,100545.03
2019-04-27T13:29:28.091Z,100542.53
2019-04-27T13:31:57.774Z,100543.80
2019-04-27T13:34:27.304Z,100533.64
2019-04-27T13:36:58.579Z,100531.33
2019-04-27T13:39:28.151Z,100532.89
2019-04-27T13:41:58.144Z,100520.45
2019-04-27T13:44:27.662Z,100525.23
2019-04-27T13:47:13.930Z,100534.28
2019-04-27T13:50:00.737Z,100530.34
2019-04-27T13:52:30.227Z,100514.78
2019-04-27T13:54:59.813Z,100516.45
2019-04-27T13:57:29.322Z,100507.72
2019-04-27T13:59:58.815Z,100496.61
2019-04-27T14:02:32.552Z,100499.30
2019-04-27T14:05:02.268Z,100509.75
2019-04-27T14:07:31.846Z,100506.66
2019-04-27T14:10:02.913Z,100517.76
2019-04-27T14:12:32.416Z,100531.42
2019-04-27T14:15:01.975Z,100549.44
2019-04-27T14:17:31.492Z,100562.48
2019-04-27T14:20:00.979Z,100554.51
2019-04-27T14:22:31.624Z,100555.84
2019-04-27T14:25:04.100Z,100546.84
2019-04-27T14:27:36.758Z,100538.66
2019-04-27T14:30:11.970Z,100539.43
2019-04-27T14:32:42.411Z,100539.73
2019-04-27T14:35:12.224Z,100529.88
2019-04-27T14:37:41.725Z,100531.61
2019-04-27T14:40:11.723Z,100527.16
2019-04-27T14:42:41.226Z,100521.44
2019-04-27T14:45:11.017Z,100518.08
2019-04-27T14:47:40.514Z,100509.55
2019-04-27T14:50:10.151Z,100508.91
2019-04-27T14:52:40.935Z,100499.50
2019-04-27T14:55:10.725Z,100506.84
2019-04-27T14:57:40.306Z,100506.09
2019-04-27T15:00:11.926Z,100505.22
2019-04-27T15:02:41.547Z,100497.20
2019-04-27T15:05:11.239Z,100497.13
2019-04-27T15:07:40.713Z,100497.33
2019-04-27T15:10:10.545Z,100496.48
2019-04-27T15:12:40.174Z,100507.23
2019-04-27T15:15:10.084Z,100506.28
2019-04-27T15:17:40.243Z,100513.61
2019-04-27T15:20:14.523Z,100526.52
2019-04-27T15:22:45.886Z,100520.45
2019-04-27T15:25:15.801Z,100518.58
2019-04-27T15:27:47.205Z,100523.48
2019-04-27T15:30:18.759Z,100524.77
2019-04-27T15:32:52.928Z,100530.73
2019-04-27T15:35:28.510Z,100534.23
2019-04-27T15:38:05.030Z,100533.70
2019-04-27T15:40:43.799Z,100530.31
2019-04-27T15:43:12.316Z,100533.83
2019-04-27T15:45:41.919Z,100531.22
2019-04-27T15:48:11.478Z,100530.05
2019-04-27T15:50:40.996Z,100533.83
2019-04-27T15:53:12.643Z,100543.58
2019-04-27T15:55:41.719Z,100546.42
2019-04-27T15:58:11.410Z,100552.95
2019-04-27T16:00:40.895Z,100560.91
2019-04-27T16:03:10.426Z,100561.60
2019-04-27T16:05:39.989Z,100565.47
2019-04-27T16:08:15.297Z,100574.25
2019-04-27T16:10:40.786Z,100584.42
2019-04-27T16:13:14.952Z,100578.94
2019-04-27T16:15:41.766Z,100584.19
2019-04-27T16:18:11.332Z,100593.81
2019-04-27T16:20:40.852Z,100591.20
2019-04-27T16:23:10.420Z,100600.35
2019-04-27T16:25:48.551Z,100608.17
2019-04-27T16:28:13.339Z,100604.27
2019-04-27T16:30:45.716Z,100611.16
2019-04-27T16:33:15.473Z,100621.14
2019-04-27T16:35:46.148Z,100624.95
2019-04-27T16:38:26.621Z,100633.59
2019-04-27T16:40:59.746Z,100644.81
2019-04-27T16:43:32.628Z,100655.19
2019-04-27T16:46:04.401Z,100660.29
2019-04-27T16:48:34.526Z,100666.72
2019-04-27T16:51:02.696Z,100658.07
2019-04-27T16:53:38.180Z,100655.07
2019-04-27T16:56:11.366Z,100656.73
2019-04-27T16:58:39.399Z,100661.88
2019-04-27T17:01:18.402Z,100658.34
2019-04-27T17:03:48.535Z,100659.53
2019-04-27T17:06:21.099Z,100655.37
2019-04-27T17:08:49.792Z,100664.58
2019-04-27T17:11:19.766Z,100662.66
2019-04-27T17:13:58.873Z,100653.55
2019-04-27T17:16:40.427Z,100660.39
2019-04-27T17:19:20.800Z,100662.53
2019-04-27T17:21:50.388Z,100666.81
2019-04-27T17:24:41.522Z,100664.98
2019-04-27T17:27:05.879Z,100669.78
2019-04-27T17:29:38.640Z,100677.20
2019-04-27T17:32:10.172Z,100672.85
2019-04-27T17:34:39.828Z,100682.54
2019-04-27T17:37:09.407Z,100686.41
2019-04-27T17:39:38.896Z,100691.80
2019-04-27T17:42:08.667Z,100688.06
2019-04-27T17:44:39.320Z,100692.40
2019-04-27T17:47:10.677Z,100694.56
2019-04-27T17:49:40.316Z,100701.21
2019-04-27T17:52:13.028Z,100696.56
2019-04-27T17:54:47.337Z,100701.15
2019-04-27T17:57:13.676Z,100695.80
2019-04-27T17:59:43.365Z,100700.67
2019-04-27T18:02:13.009Z,100699.64
2019-04-27T18:04:42.564Z,100702.88
2019-04-27T18:07:12.080Z,100702.52
2019-04-27T18:09:43.611Z,100712.61
2019-04-27T18:12:14.576Z,100718.41
2019-04-27T18:14:44.111Z,100712.81
2019-04-27T18:17:13.712Z,100725.30
2019-04-27T18:19:50.610Z,100728.16
2019-04-27T18:22:20.204Z,100737.60
2019-04-27T18:25:06.248Z,100747.56
2019-04-27T18:27:33.572Z,100757.08
2019-04-27T18:30:10.952Z,100762.95
2019-04-27T18:32:40.538Z,100764.53
2019-04-27T18:35:10.343Z,100771.03
2019-04-27T18:37:39.919Z,100772.74
2019-04-27T18:40:09.565Z,100787.06
2019-04-27T18:42:39.217Z,100784.95
2019-04-27T18:45:08.960Z,100783.91
2019-04-27T18:47:40.560Z,100785.81
2019-04-27T18:50:14.740Z,100789.81
2019-04-27T18:52:47.673Z,100779.30
2019-04-27T18:55:18.550Z,100788.81
2019-04-27T18:57:50.939Z,100796.73
2019-04-27T19:00:20.858Z,100805.19
2019-04-27T19:02:50.541Z,100804.49
2019-04-27T19:05:20.147Z,100801.36
2019-04-27T19:07:49.768Z,100809.87
2019-04-27T19:10:19.523Z,100810.61
2019-04-27T19:12:49.143Z,100812.16
2019-04-27T19:15:19.108Z,100815.44
2019-04-27T19:17:49.057Z,100809.59
2019-04-27T19:20:18.889Z,100814.95
2019-04-27T19:22:49.198Z,100816.02
2019-04-27T19:25:20.458Z,100821.59
2019-04-27T19:28:09.450Z,100822.51
2019-04-27T19:30:43.639Z,100820.13
2019-04-27T19:33:13.216Z,100832.55
2019-04-27T19:35:42.744Z,100829.86
2019-04-27T19:38:12.254Z,100837.48
2019-04-27T19:40:41.850Z,100834.60
2019-04-27T19:43:11.457Z,100835.77
2019-04-27T19:45:40.988Z,100839.38
2019-04-27T19:48:10.681Z,100832.41
2019-04-27T19:50:40.140Z,100842.91
2019-04-27T19:53:09.746Z,100845.16
2019-04-27T19:55:40.596Z,100849.05
2019-04-27T19:58:10.402Z,100847.30
2019-04-27T20:00:39.871Z,100849.53
2019-04-27T20:03:11.185Z,100858.14
2019-04-27T20:05:40.666Z,100855.53
2019-04-27T20:08:11.944Z,100856.02
2019-04-27T20:10:43.247Z,100863.59
2019-04-27T20:13:12.837Z,100863.73
2019-04-27T20:15:42.985Z,100862.72
2019-04-27T20:18:12.517Z,100862.44
2019-04-27T20:20:42.161Z,100861.64
2019-04-27T20:23:11.803Z,100867.14
2019-04-27T20:25:41.333Z,100865.34
2019-04-27T20:28:12.077Z,100867.94
2019-04-27T20:30:41.727Z,100871.95
2019-04-27T20:33:11.206Z,100872.03
2019-04-27T20:35:42.549Z,100867.44
2019-04-27T20:38:12.904Z,100869.29
2019-04-27T20:40:42.506Z,100869.95
2019-04-27T20:43:11.991Z,100873.67
2019-04-27T20:45:41.668Z,100871.90
2019-04-27T20:48:11.289Z,100876.98
2019-04-27T20:50:41.279Z,100872.62
2019-04-27T20:53:15.461Z,100876.30
2019-04-27T20:55:44.965Z,100874.70
2019-04-27T20:58:14.480Z,100878.03
2019-04-27T21:00:43.979Z,100872.33
2019-04-27T21:03:15.258Z,100877.01
2019-04-27T21:05:51.138Z,100875.28
2019-04-27T21:08:27.902Z,100881.08
2019-04-27T21:10:57.491Z,100874.97
2019-04-27T21:13:27.039Z,100876.14
2019-04-27T21:15:56.670Z,100875.94
2019-04-27T21:18:26.297Z,100882.06
2019-04-27T21:20:55.886Z,100881.27
2019-04-27T21:23:25.464Z,100886.09
2019-04-27T21:25:55.090Z,100880.87
2019-04-27T21:28:24.605Z,100882.76
2019-04-27T21:30:54.241Z,100886.45
2019-04-27T21:33:23.758Z,100889.91
2019-04-27T21:35:53.419Z,100884.94
2019-04-27T21:38:22.904Z,100888.66
2019-04-27T21:40:52.510Z,100891.30
2019-04-27T21:43:22.181Z,100891.62
2019-04-27T21:45:51.767Z,100895.02
2019-04-27T21:48:21.394Z,100892.97
2019-04-27T21:50:51.672Z,100896.96
2019-04-27T21:53:22.981Z,100899.13
2019-04-27T21:56:03.199Z,100897.75
2019-04-27T21:58:33.292Z,100897.87
2019-04-27T22:01:11.484Z,100903.95
2019-04-27T22:03:42.233Z,100902.45
2019-04-27T22:06:12.338Z,100905.03
2019-04-27T22:08:41.980Z,100908.27
2019-04-27T22:11:11.795Z,100917.26
2019-04-27T22:13:41.489Z,100912.14
2019-04-27T22:16:12.947Z,100921.52
2019-04-27T22:18:42.232Z,100913.19
2019-04-27T22:21:11.954Z,100916.99
2019-04-27T22:23:55.155Z,100921.02
2019-04-27T22:26:24.763Z,100922.42
2019-04-27T22:28:54.362Z,100927.53
2019-04-27T22:31:23.989Z,100925.56
2019-04-27T22:33:54.605Z,100920.80
2019-04-27T22:36:24.376Z,100922.00
2019-04-27T22:38:55.557Z,100921.54
2019-04-27T22:41:32.637Z,100926.02
2019-04-27T22:44:01.907Z,100930.74
2019-04-27T22:46:33.113Z,100929.73
2019-04-27T22:49:02.708Z,100932.36
2019-04-27T22:51:32.254Z,100933.36
2019-04-27T22:54:01.806Z,100931.38
2019-04-27T22:56:32.102Z,100935.86
2019-04-27T22:59:21.354Z,100938.14
2019-04-27T23:01:51.203Z,100940.97
2019-04-27T23:04:25.197Z,100933.55
2019-04-27T23:06:54.805Z,100946.42
2019-04-27T23:09:24.395Z,100945.64
2019-04-27T23:11:53.865Z,100950.31
2019-04-27T23:14:23.388Z,100945.57
2019-04-27T23:16:54.575Z,100941.05
2019-04-27T23:19:24.069Z,100936.33
2019-04-27T23:21:53.567Z,100936.97
2019-04-27T23:24:23.131Z,100934.83
2019-04-27T23:26:52.739Z,100940.97
2019-04-27T23:29:22.206Z,100939.05
2019-04-27T23:32:04.947Z,100943.01
2019-04-27T23:34:34.515Z,100941.97
2019-04-27T23:37:04.062Z,100945.94
2019-04-27T23:39:33.665Z,100949.63
2019-04-27T23:42:06.801Z,100949.34
2019-04-27T23:44:34.497Z,100944.09
2019-04-27T23:47:03.991Z,100947.68
2019-04-27T23:49:33.509Z,100942.59
2019-04-27T23:52:04.823Z,100947.68
2019-04-27T23:54:34.382Z,100945.08
2019-04-27T23:57:03.961Z,100942.33
2019-04-27T23:59:33.473Z,100939.23
